SHT3T EGLL-EGPH
Flight info
| Callsign | SHT3T |
|---|---|
| Flight time | 0h 58m |
| Altitude | 32000 |
| Route | ULTIB T420 TNT UN57 POL UN601 RIBEL DCT INPIP |
| Aircraft | A320/M-SDE3FGHIRWY/LB1 |
Departure
| Time | 2026-05-04 19:46 |
|---|---|
| Airport | London Heathrow Airport (EGLL) |
Arrival
| Time | 2026-05-04 20:45 |
|---|---|
| Airport | Edinburgh Airport (EGPH) |
| Time | Latitude | Longitude | Altitude | Speed | Heading |
|---|---|---|---|---|---|
| 2026-05-04 19:15 | 51.46994 | -0.48618 | 86 ft | 0 kts | 269° |
| 2026-05-04 19:16 | 51.46994 | -0.48620 | 86 ft | 0 kts | 269° |
| 2026-05-04 19:39 | 51.46994 | -0.48616 | 86 ft | 2 kts | 269° |
| 2026-05-04 19:39 | 51.46994 | -0.48589 | 90 ft | 2 kts | 269° |
| 2026-05-04 19:39 | 51.46994 | -0.48562 | 89 ft | 2 kts | 269° |
| 2026-05-04 19:40 | 51.46994 | -0.48535 | 90 ft | 2 kts | 269° |
| 2026-05-04 19:40 | 51.46996 | -0.48509 | 88 ft | 2 kts | 269° |
| 2026-05-04 19:40 | 51.46997 | -0.48483 | 89 ft | 2 kts | 224° |
| 2026-05-04 19:40 | 51.47011 | -0.48469 | 91 ft | 2 kts | 181° |
| 2026-05-04 19:41 | 51.47012 | -0.48469 | 91 ft | 0 kts | 178° |
| 2026-05-04 19:43 | 51.47009 | -0.48469 | 91 ft | 3 kts | 179° |
| 2026-05-04 19:43 | 51.46958 | -0.48470 | 89 ft | 10 kts | 181° |
| 2026-05-04 19:43 | 51.46881 | -0.48470 | 88 ft | 11 kts | 178° |
| 2026-05-04 19:44 | 51.46789 | -0.48468 | 86 ft | 15 kts | 180° |
| 2026-05-04 19:44 | 51.46699 | -0.48467 | 87 ft | 13 kts | 179° |
| 2026-05-04 19:44 | 51.46604 | -0.48467 | 87 ft | 8 kts | 180° |
| 2026-05-04 19:44 | 51.46599 | -0.48467 | 87 ft | 0 kts | 180° |
| 2026-05-04 19:45 | 51.46591 | -0.48467 | 87 ft | 5 kts | 180° |
| 2026-05-04 19:45 | 51.46546 | -0.48467 | 87 ft | 11 kts | 180° |
| 2026-05-04 19:45 | 51.46480 | -0.48383 | 87 ft | 17 kts | 98° |
| 2026-05-04 19:45 | 51.46479 | -0.48301 | 88 ft | 2 kts | 91° |
| 2026-05-04 19:46 | 51.46479 | -0.47777 | 87 ft | 95 kts | 89° |
| 2026-05-04 19:46 | 51.46485 | -0.46334 | 93 ft | 160 kts | 90° |
| 2026-05-04 19:46 | 51.46484 | -0.44434 | 396 ft | 176 kts | 90° |
| 2026-05-04 19:46 | 51.46513 | -0.42287 | 866 ft | 207 kts | 85° |
| 2026-05-04 19:47 | 51.47053 | -0.40077 | 1483 ft | 230 kts | 52° |
| 2026-05-04 19:47 | 51.48103 | -0.38081 | 2530 ft | 237 kts | 50° |
| 2026-05-04 19:47 | 51.49166 | -0.36016 | 3730 ft | 241 kts | 50° |
| 2026-05-04 19:47 | 51.50220 | -0.33934 | 4878 ft | 245 kts | 51° |
| 2026-05-04 19:48 | 51.51301 | -0.31783 | 6032 ft | 249 kts | 51° |
| 2026-05-04 19:48 | 51.52336 | -0.29518 | 7143 ft | 255 kts | 61° |
| 2026-05-04 19:48 | 51.52986 | -0.26839 | 8231 ft | 259 kts | 70° |
| 2026-05-04 19:48 | 51.53873 | -0.24303 | 9256 ft | 264 kts | 47° |
| 2026-05-04 19:49 | 51.55352 | -0.22671 | 10228 ft | 268 kts | 20° |
| 2026-05-04 19:49 | 51.56083 | -0.22345 | 10723 ft | 272 kts | 8° |
| 2026-05-04 19:49 | 51.56675 | -0.22281 | 11029 ft | 271 kts | 358° |
| 2026-05-04 19:49 | 51.57336 | -0.22379 | 11329 ft | 274 kts | 350° |
| 2026-05-04 19:50 | 51.57766 | -0.22498 | 11541 ft | 275 kts | 349° |
| 2026-05-04 19:50 | 51.59645 | -0.23068 | 12582 ft | 276 kts | 348° |
| 2026-05-04 19:50 | 51.61509 | -0.23876 | 13539 ft | 281 kts | 339° |
| 2026-05-04 19:50 | 51.62821 | -0.24802 | 13943 ft | 298 kts | 332° |
| 2026-05-04 19:51 | 51.64682 | -0.26588 | 14394 ft | 323 kts | 328° |
| 2026-05-04 19:51 | 51.66656 | -0.28518 | 15044 ft | 337 kts | 328° |
| 2026-05-04 19:51 | 51.68562 | -0.30366 | 15845 ft | 345 kts | 328° |
| 2026-05-04 19:51 | 51.69249 | -0.31030 | 16125 ft | 347 kts | 328° |
| 2026-05-04 19:52 | 51.71315 | -0.33020 | 16992 ft | 353 kts | 328° |
| 2026-05-04 19:52 | 51.73476 | -0.35096 | 17867 ft | 360 kts | 328° |
| 2026-05-04 19:52 | 51.74394 | -0.35979 | 18219 ft | 363 kts | 328° |
| 2026-05-04 19:53 | 51.75649 | -0.37191 | 18650 ft | 367 kts | 328° |
| 2026-05-04 19:53 | 51.77861 | -0.39329 | 19479 ft | 372 kts | 328° |
| 2026-05-04 19:53 | 51.80068 | -0.41461 | 20301 ft | 376 kts | 328° |
| 2026-05-04 19:53 | 51.82328 | -0.43647 | 21144 ft | 379 kts | 327° |
| 2026-05-04 19:54 | 51.84603 | -0.45854 | 21952 ft | 383 kts | 327° |
| 2026-05-04 19:54 | 51.86907 | -0.48095 | 22724 ft | 387 kts | 327° |
| 2026-05-04 19:54 | 51.89240 | -0.50368 | 23494 ft | 392 kts | 327° |
| 2026-05-04 19:54 | 51.91600 | -0.52667 | 24158 ft | 396 kts | 327° |
| 2026-05-04 19:55 | 51.93941 | -0.54948 | 24803 ft | 400 kts | 327° |
| 2026-05-04 19:55 | 51.96343 | -0.57289 | 25451 ft | 404 kts | 327° |
| 2026-05-04 19:55 | 51.98767 | -0.59655 | 26098 ft | 407 kts | 327° |
| 2026-05-04 19:55 | 52.01219 | -0.62053 | 26735 ft | 411 kts | 327° |
| 2026-05-04 19:56 | 52.03685 | -0.64471 | 27359 ft | 415 kts | 326° |
| 2026-05-04 19:56 | 52.06136 | -0.66879 | 28018 ft | 418 kts | 326° |
| 2026-05-04 19:56 | 52.08632 | -0.69331 | 28653 ft | 420 kts | 326° |
| 2026-05-04 19:56 | 52.11150 | -0.71806 | 29271 ft | 424 kts | 326° |
| 2026-05-04 19:57 | 52.13687 | -0.74304 | 29863 ft | 428 kts | 326° |
| 2026-05-04 19:57 | 52.16244 | -0.76827 | 30417 ft | 432 kts | 326° |
| 2026-05-04 19:57 | 52.18833 | -0.79384 | 30943 ft | 436 kts | 326° |
| 2026-05-04 19:57 | 52.21000 | -0.81526 | 31387 ft | 439 kts | 327° |
| 2026-05-04 19:58 | 52.23626 | -0.84127 | 31877 ft | 442 kts | 326° |
| 2026-05-04 19:58 | 52.26262 | -0.86747 | 32031 ft | 442 kts | 326° |
| 2026-05-04 19:58 | 52.28846 | -0.89314 | 32062 ft | 425 kts | 327° |
| 2026-05-04 19:58 | 52.31304 | -0.91753 | 32055 ft | 407 kts | 327° |
| 2026-05-04 19:59 | 52.33688 | -0.94119 | 32055 ft | 396 kts | 327° |
| 2026-05-04 19:59 | 52.38362 | -0.98781 | 32057 ft | 392 kts | 327° |
| 2026-05-04 20:00 | 52.42999 | -1.03421 | 32050 ft | 392 kts | 327° |
| 2026-05-04 20:00 | 52.47658 | -1.08096 | 32047 ft | 392 kts | 327° |
| 2026-05-04 20:01 | 52.52291 | -1.12752 | 32044 ft | 392 kts | 328° |
| 2026-05-04 20:01 | 52.56944 | -1.17438 | 32041 ft | 392 kts | 328° |
| 2026-05-04 20:02 | 52.61611 | -1.22152 | 32040 ft | 393 kts | 328° |
| 2026-05-04 20:02 | 52.66261 | -1.26864 | 32040 ft | 393 kts | 327° |
| 2026-05-04 20:03 | 52.70893 | -1.31572 | 32042 ft | 393 kts | 327° |
| 2026-05-04 20:03 | 52.75543 | -1.36318 | 32071 ft | 393 kts | 327° |
| 2026-05-04 20:04 | 52.80199 | -1.41069 | 32073 ft | 392 kts | 329° |
| 2026-05-04 20:04 | 52.84824 | -1.45795 | 32079 ft | 392 kts | 329° |
| 2026-05-04 20:05 | 52.89469 | -1.50557 | 32076 ft | 392 kts | 328° |
| 2026-05-04 20:05 | 52.94108 | -1.55321 | 32075 ft | 392 kts | 330° |
| 2026-05-04 20:06 | 52.98722 | -1.60066 | 32077 ft | 392 kts | 329° |
| 2026-05-04 20:06 | 53.03357 | -1.64862 | 32073 ft | 392 kts | 330° |
| 2026-05-04 20:07 | 53.08238 | -1.68745 | 32075 ft | 388 kts | 342° |
| 2026-05-04 20:07 | 53.13309 | -1.71876 | 32077 ft | 388 kts | 342° |
| 2026-05-04 20:08 | 53.18332 | -1.75006 | 32077 ft | 388 kts | 342° |
| 2026-05-04 20:08 | 53.23390 | -1.78162 | 32077 ft | 388 kts | 342° |
| 2026-05-04 20:09 | 53.28453 | -1.81313 | 32069 ft | 387 kts | 342° |
| 2026-05-04 20:09 | 53.33470 | -1.84442 | 32074 ft | 387 kts | 342° |
| 2026-05-04 20:10 | 53.38518 | -1.87605 | 32093 ft | 387 kts | 342° |
| 2026-05-04 20:10 | 53.43575 | -1.90785 | 32094 ft | 387 kts | 341° |
| 2026-05-04 20:11 | 53.48586 | -1.93944 | 32080 ft | 387 kts | 341° |
| 2026-05-04 20:11 | 53.53629 | -1.97135 | 32080 ft | 387 kts | 341° |
| 2026-05-04 20:12 | 53.58677 | -2.00334 | 32082 ft | 386 kts | 341° |
| 2026-05-04 20:12 | 53.63675 | -2.03505 | 32081 ft | 386 kts | 341° |
| 2026-05-04 20:13 | 53.68709 | -2.06706 | 32078 ft | 386 kts | 341° |
| 2026-05-04 20:13 | 53.73749 | -2.09916 | 32072 ft | 386 kts | 341° |
| 2026-05-04 20:14 | 53.78755 | -2.13213 | 32083 ft | 385 kts | 339° |
| 2026-05-04 20:14 | 53.83689 | -2.16622 | 32085 ft | 385 kts | 339° |
| 2026-05-04 20:15 | 53.88650 | -2.20055 | 32081 ft | 384 kts | 339° |
| 2026-05-04 20:15 | 53.93605 | -2.23454 | 32079 ft | 384 kts | 339° |
| 2026-05-04 20:16 | 53.98562 | -2.26858 | 32078 ft | 383 kts | 339° |
| 2026-05-04 20:16 | 54.03476 | -2.30239 | 32079 ft | 383 kts | 339° |
| 2026-05-04 20:17 | 54.08424 | -2.33656 | 32081 ft | 382 kts | 339° |
| 2026-05-04 20:17 | 54.13332 | -2.37052 | 32079 ft | 382 kts | 339° |
| 2026-05-04 20:18 | 54.18259 | -2.40477 | 32078 ft | 382 kts | 339° |
| 2026-05-04 20:18 | 54.23157 | -2.43886 | 32076 ft | 381 kts | 338° |
| 2026-05-04 20:19 | 54.28075 | -2.47310 | 32081 ft | 381 kts | 338° |
| 2026-05-04 20:19 | 54.32993 | -2.50753 | 32076 ft | 381 kts | 337° |
| 2026-05-04 20:20 | 54.37872 | -2.54172 | 32075 ft | 381 kts | 337° |
| 2026-05-04 20:20 | 54.42777 | -2.57627 | 32078 ft | 381 kts | 337° |
| 2026-05-04 20:21 | 54.47691 | -2.61096 | 32077 ft | 380 kts | 336° |
| 2026-05-04 20:21 | 54.55037 | -2.66282 | 32082 ft | 381 kts | 336° |
| 2026-05-04 20:22 | 54.57527 | -2.68051 | 32060 ft | 401 kts | 336° |
| 2026-05-04 20:22 | 54.60164 | -2.69932 | 32058 ft | 415 kts | 336° |
| 2026-05-04 20:22 | 54.62821 | -2.71822 | 32054 ft | 404 kts | 336° |
| 2026-05-04 20:22 | 54.65344 | -2.73619 | 31942 ft | 390 kts | 336° |
| 2026-05-04 20:23 | 54.67820 | -2.75386 | 31650 ft | 381 kts | 336° |
| 2026-05-04 20:23 | 54.70273 | -2.77137 | 31168 ft | 379 kts | 336° |
| 2026-05-04 20:23 | 54.72720 | -2.78884 | 30623 ft | 379 kts | 335° |
| 2026-05-04 20:23 | 54.75162 | -2.80630 | 30066 ft | 379 kts | 335° |
| 2026-05-04 20:24 | 54.77596 | -2.82372 | 29552 ft | 376 kts | 335° |
| 2026-05-04 20:24 | 54.79977 | -2.84074 | 29049 ft | 373 kts | 335° |
| 2026-05-04 20:24 | 54.82376 | -2.85792 | 28572 ft | 371 kts | 335° |
| 2026-05-04 20:24 | 54.84751 | -2.87501 | 28093 ft | 368 kts | 335° |
| 2026-05-04 20:25 | 54.87116 | -2.89205 | 27608 ft | 366 kts | 335° |
| 2026-05-04 20:25 | 54.89458 | -2.90896 | 27091 ft | 364 kts | 335° |
| 2026-05-04 20:25 | 54.91781 | -2.92573 | 26487 ft | 359 kts | 335° |
| 2026-05-04 20:25 | 54.94063 | -2.94222 | 25891 ft | 358 kts | 335° |
| 2026-05-04 20:26 | 54.96364 | -2.95889 | 25290 ft | 356 kts | 335° |
| 2026-05-04 20:26 | 54.98639 | -2.97541 | 24724 ft | 353 kts | 334° |
| 2026-05-04 20:26 | 55.00906 | -2.99190 | 24152 ft | 350 kts | 334° |
| 2026-05-04 20:26 | 55.03145 | -3.00815 | 23582 ft | 347 kts | 334° |
| 2026-05-04 20:27 | 55.05373 | -3.02433 | 22979 ft | 345 kts | 334° |
| 2026-05-04 20:27 | 55.07567 | -3.04032 | 22507 ft | 341 kts | 334° |
| 2026-05-04 20:27 | 55.09721 | -3.05609 | 22029 ft | 338 kts | 334° |
| 2026-05-04 20:27 | 55.11886 | -3.07196 | 21530 ft | 335 kts | 334° |
| 2026-05-04 20:28 | 55.14036 | -3.08769 | 21051 ft | 333 kts | 334° |
| 2026-05-04 20:28 | 55.16167 | -3.10326 | 20587 ft | 331 kts | 334° |
| 2026-05-04 20:28 | 55.18260 | -3.11856 | 20130 ft | 328 kts | 334° |
| 2026-05-04 20:28 | 55.20364 | -3.13400 | 19679 ft | 326 kts | 334° |
| 2026-05-04 20:29 | 55.22455 | -3.14937 | 19250 ft | 324 kts | 334° |
| 2026-05-04 20:29 | 55.24525 | -3.16460 | 18884 ft | 321 kts | 334° |
| 2026-05-04 20:29 | 55.26580 | -3.17973 | 18477 ft | 318 kts | 334° |
| 2026-05-04 20:29 | 55.28630 | -3.19398 | 18020 ft | 317 kts | 340° |
| 2026-05-04 20:30 | 55.30737 | -3.20093 | 17584 ft | 319 kts | 353° |
| 2026-05-04 20:30 | 55.32958 | -3.19958 | 17143 ft | 320 kts | 1° |
| 2026-05-04 20:30 | 55.35164 | -3.19611 | 16722 ft | 318 kts | 1° |
| 2026-05-04 20:30 | 55.37366 | -3.19264 | 16282 ft | 316 kts | 1° |
| 2026-05-04 20:31 | 55.39548 | -3.18923 | 15853 ft | 314 kts | 1° |
| 2026-05-04 20:31 | 55.41720 | -3.18585 | 15446 ft | 312 kts | 1° |
| 2026-05-04 20:31 | 55.43888 | -3.18245 | 15045 ft | 311 kts | 1° |
| 2026-05-04 20:31 | 55.46031 | -3.17909 | 14667 ft | 309 kts | 1° |
| 2026-05-04 20:32 | 55.48172 | -3.17573 | 14292 ft | 308 kts | 1° |
| 2026-05-04 20:32 | 55.50271 | -3.17244 | 13965 ft | 305 kts | 1° |
| 2026-05-04 20:32 | 55.52378 | -3.16910 | 13559 ft | 303 kts | 1° |
| 2026-05-04 20:32 | 55.54470 | -3.16578 | 13141 ft | 301 kts | 1° |
| 2026-05-04 20:33 | 55.56494 | -3.16256 | 12445 ft | 299 kts | 4° |
| 2026-05-04 20:33 | 55.58575 | -3.15924 | 12288 ft | 299 kts | 1° |
| 2026-05-04 20:33 | 55.60634 | -3.15596 | 11958 ft | 295 kts | 1° |
| 2026-05-04 20:33 | 55.62673 | -3.15274 | 11606 ft | 293 kts | 1° |
| 2026-05-04 20:34 | 55.64667 | -3.14958 | 11202 ft | 291 kts | 1° |
| 2026-05-04 20:34 | 55.66679 | -3.14638 | 10859 ft | 289 kts | 1° |
| 2026-05-04 20:34 | 55.68649 | -3.14324 | 10730 ft | 279 kts | 1° |
| 2026-05-04 20:34 | 55.70566 | -3.14022 | 10436 ft | 272 kts | 1° |
| 2026-05-04 20:35 | 55.72430 | -3.13708 | 10103 ft | 269 kts | 2° |
| 2026-05-04 20:35 | 55.74283 | -3.13296 | 9748 ft | 268 kts | 4° |
| 2026-05-04 20:35 | 55.76115 | -3.12832 | 9378 ft | 268 kts | 5° |
| 2026-05-04 20:35 | 55.77959 | -3.12345 | 9020 ft | 268 kts | 5° |
| 2026-05-04 20:36 | 55.79805 | -3.11856 | 8650 ft | 267 kts | 5° |
| 2026-05-04 20:36 | 55.81648 | -3.11379 | 8234 ft | 268 kts | 5° |
| 2026-05-04 20:36 | 55.83507 | -3.10907 | 7797 ft | 270 kts | 5° |
| 2026-05-04 20:36 | 55.85372 | -3.10437 | 7357 ft | 271 kts | 5° |
| 2026-05-04 20:37 | 55.87218 | -3.09974 | 6944 ft | 271 kts | 5° |
| 2026-05-04 20:37 | 55.89044 | -3.09516 | 6523 ft | 258 kts | 6° |
| 2026-05-04 20:37 | 55.90785 | -3.09073 | 6088 ft | 247 kts | 5° |
| 2026-05-04 20:37 | 55.92445 | -3.08643 | 5636 ft | 237 kts | 6° |
| 2026-05-04 20:38 | 55.94044 | -3.08230 | 5202 ft | 227 kts | 5° |
| 2026-05-04 20:38 | 55.95577 | -3.07839 | 4757 ft | 218 kts | 6° |
| 2026-05-04 20:38 | 55.97059 | -3.07461 | 4323 ft | 211 kts | 6° |
| 2026-05-04 20:38 | 55.98471 | -3.07101 | 4069 ft | 198 kts | 4° |
| 2026-05-04 20:39 | 55.99781 | -3.06768 | 3839 ft | 187 kts | 4° |
| 2026-05-04 20:39 | 56.01055 | -3.06451 | 3602 ft | 184 kts | 5° |
| 2026-05-04 20:39 | 56.02321 | -3.06153 | 3374 ft | 182 kts | 1° |
| 2026-05-04 20:39 | 56.03497 | -3.06716 | 3150 ft | 176 kts | 321° |
| 2026-05-04 20:40 | 56.04137 | -3.08467 | 3040 ft | 173 kts | 283° |
| 2026-05-04 20:40 | 56.03980 | -3.10583 | 3027 ft | 178 kts | 245° |
| 2026-05-04 20:40 | 56.03334 | -3.12501 | 3022 ft | 180 kts | 243° |
| 2026-05-04 20:40 | 56.02692 | -3.14411 | 2895 ft | 178 kts | 242° |
| 2026-05-04 20:41 | 56.02074 | -3.16249 | 2691 ft | 167 kts | 243° |
| 2026-05-04 20:41 | 56.01489 | -3.17991 | 2475 ft | 160 kts | 243° |
| 2026-05-04 20:41 | 56.01111 | -3.19115 | 2333 ft | 158 kts | 244° |
| 2026-05-04 20:41 | 56.00373 | -3.21311 | 2057 ft | 154 kts | 244° |
| 2026-05-04 20:42 | 55.99826 | -3.22938 | 1849 ft | 151 kts | 244° |
| 2026-05-04 20:42 | 55.99290 | -3.24528 | 1646 ft | 144 kts | 243° |
| 2026-05-04 20:42 | 55.98962 | -3.25497 | 1523 ft | 128 kts | 244° |
| 2026-05-04 20:42 | 55.98528 | -3.26782 | 1348 ft | 114 kts | 244° |
| 2026-05-04 20:43 | 55.98133 | -3.27958 | 1188 ft | 108 kts | 244° |
| 2026-05-04 20:43 | 55.97746 | -3.29109 | 1031 ft | 108 kts | 243° |
| 2026-05-04 20:43 | 55.97355 | -3.30271 | 871 ft | 109 kts | 242° |
| 2026-05-04 20:43 | 55.96961 | -3.31439 | 715 ft | 109 kts | 243° |
| 2026-05-04 20:44 | 55.96573 | -3.32588 | 581 ft | 109 kts | 243° |
| 2026-05-04 20:44 | 55.96174 | -3.33761 | 404 ft | 111 kts | 241° |
| 2026-05-04 20:44 | 55.95780 | -3.34947 | 280 ft | 112 kts | 241° |
| 2026-05-04 20:44 | 55.95373 | -3.36142 | 118 ft | 107 kts | 243° |
| 2026-05-04 20:45 | 55.95120 | -3.36909 | 114 ft | 50 kts | 239° |
| 2026-05-04 20:45 | 55.94992 | -3.37285 | 112 ft | 26 kts | 238° |
| 2026-05-04 20:45 | 55.94892 | -3.37572 | 114 ft | 28 kts | 238° |
| 2026-05-04 20:45 | 55.94786 | -3.37883 | 113 ft | 30 kts | 239° |
| 2026-05-04 20:46 | 55.94689 | -3.38046 | 115 ft | 13 kts | 156° |
| 2026-05-04 20:46 | 55.94616 | -3.37975 | 115 ft | 10 kts | 148° |
| 2026-05-04 20:46 | 55.94596 | -3.37876 | 112 ft | 9 kts | 71° |
| 2026-05-04 20:46 | 55.94630 | -3.37768 | 113 ft | 12 kts | 59° |
| 2026-05-04 20:47 | 55.94680 | -3.37621 | 114 ft | 13 kts | 58° |
| 2026-05-04 20:47 | 55.94739 | -3.37447 | 114 ft | 19 kts | 59° |
| 2026-05-04 20:47 | 55.94794 | -3.37286 | 114 ft | 13 kts | 58° |
| 2026-05-04 20:47 | 55.94853 | -3.37111 | 115 ft | 20 kts | 60° |
| 2026-05-04 20:48 | 55.94892 | -3.36995 | 113 ft | 11 kts | 59° |
| 2026-05-04 20:48 | 55.94925 | -3.36866 | 115 ft | 9 kts | 97° |
| 2026-05-04 20:48 | 55.94904 | -3.36811 | 115 ft | 5 kts | 132° |
| 2026-05-04 20:48 | 55.94899 | -3.36741 | 116 ft | 0 kts | 79° |
| 2026-05-04 20:49 | 55.94907 | -3.36713 | 115 ft | 5 kts | 62° |
| 2026-05-04 20:49 | 55.94897 | -3.36658 | 116 ft | 4 kts | 138° |
| 2026-05-04 20:49 | 55.94867 | -3.36620 | 115 ft | 5 kts | 146° |
| 2026-05-04 20:49 | 55.94851 | -3.36601 | 113 ft | 0 kts | 146° |
| 2026-05-04 20:50 | 55.94851 | -3.36600 | 113 ft | 0 kts | 146° |